x

Port Stanley (45132) Wave Buoy

10:00pm - Mon 1st Sep 2014 All times are CDT. -5 hours from GMT.

  • Sig Wave height 2.3ft
  • Peak Period 4s
  • Wind
    11mph, 13mph gusts
  • Sea Temp 72°f
  • Air Temp 72°f
  • Sea Pressure 1010.3mb
  • Port Stanley
  • Port Stanley

More Historic Weather Station data

Upgrade to MSW Pro to gain access to the past 30 days of data for over 8000 Wavebouys and Weather Stations around the globe.

Join Pro

Comparision Forecast

View Surf forecast
   
Mon 09/01 10:00pm 2.5ft 4s 11 13 mph 1010.3mb 72f 72f
9:00pm 2.5ft 4s 13 18 mph 1009.9mb 72f 71f
8:00pm 1.6ft 4s 13 18 mph 1008.6mb 72f 75f
7:00pm 1.6ft 5s 13 18 mph 1009mb 72f 76f
6:00pm 2ft 4s 13 16 mph 1008.7mb 73f 76f
5:00pm 2ft 5s 11 13 mph 1008.8mb 73f 75f
4:00pm 2.5ft 5s 9
mph
1009.5mb 73f 75f
3:00pm 2.5ft 5s 11 13 mph 1009.9mb 72f 74f
2:00pm 2.5ft 4s 13 16 mph 1010.5mb 72f 74f
1:00pm 2.5ft 5s 11 13 mph 1011.7mb 72f 73f
12:00pm 2.5ft 4s 13 16 mph 1012.2mb 72f 73f
11:00am 2ft 4s 16 18 mph 1012.7mb 72f 73f
10:00am 2ft 4s 13 16 mph 1012.9mb 72f 73f
9:00am 1.6ft 4s 13 18 mph 1013.3mb 72f 73f
8:00am 1.6ft 4s 13 16 mph 1013.3mb 72f 73f
7:00am 1.3ft 3s 13 16 mph 1013.7mb 71f 73f
6:00am 1.3ft 3s 13
mph
1013.8mb 71f 72f
5:00am 1ft 3s 13
mph
1013.5mb 71f 72f
4:00am 0.7ft 3s 11 13 mph 1013.7mb 71f 73f
3:00am 0.7ft 3s 11 13 mph 1013.6mb 71f 72f
2:00am 0.7ft 3s 11
mph
1014mb 71f 72f
1:00am 0.7ft 4s 11 13 mph 1013.8mb 71f 73f
12:00am 0.7ft 4s 9 11 mph 1013.8mb 71f 73f
Sun 08/31 11:00pm 1ft 4s 9 11 mph 1013.6mb 71f 73f
10:00pm 1ft 4s 9
mph
1014mb 71f 72f
9:00pm 1.3ft 4s 9
mph
1014.2mb 72f 72f
8:00pm 1.3ft 4s 7 9 mph 1014.1mb 72f 72f
7:00pm 1.6ft 4s 11 13 mph 1013.7mb 72f 73f
5:00pm 2.5ft 5s 13 16 mph 1013.7mb 72f 73f
4:00pm 2.5ft 4s 11 13 mph 1013.7mb 72f 73f
3:00pm 2.5ft 5s 13 16 mph 1013.8mb 72f 73f
2:00pm 2.5ft 4s 13 18 mph 1014mb 72f 73f
1:00pm 2.5ft 4s 13 16 mph 1014.6mb 71f 72f
12:00pm 2.5ft 5s 13 16 mph 1014.4mb 71f 71f
11:00am 2ft 4s 18 22 mph 1014.5mb 71f 72f
10:00am 2ft 5s 11 13 mph 1014.5mb 71f 72f
9:00am 2.5ft 5s 11 13 mph 1014.4mb 71f 73f
8:00am 2.5ft 5s 11 13 mph 1014.3mb 71f 73f
7:00am 3ft 5s 16 18 mph 1014mb 71f 73f
6:00am 3ft 4s 18 20 mph 1013.5mb 71f 73f
5:00am 2.5ft 4s 16 20 mph 1012.9mb 71f 74f
4:00am 2.5ft 5s 18
mph
1012.8mb 71f 74f
3:00am 2.5ft 5s 16 18 mph 1013mb 71f 74f
2:00am 2.5ft 5s 18 20 mph 1013.1mb 71f 74f
1:00am 3ft 5s 16 18 mph 1013.6mb 71f 74f
12:00am 3ft 5s 18 22 mph 1013.4mb 71f 75f
Sat 08/30 11:00pm 2.5ft 4s 20 22 mph 1013.1mb 71f 75f
10:00pm 2ft 4s 18 20 mph 1012.8mb 71f 75f
9:00pm 1.6ft 4s 16 18 mph 1013.3mb 71f 75f
8:00pm 1.6ft 4s 13 16 mph 1013mb 71f 75f
7:00pm 2ft 4s 9 11 mph 1012.5mb 71f 74f
6:00pm 2ft 4s 11 13 mph 1012.4mb 72f 75f
5:00pm 2ft 4s 18 20 mph 1012.5mb 72f 75f
4:00pm 2ft 5s 11 13 mph 1013mb 72f 76f
3:00pm 2ft 5s 13 16 mph 1013.4mb 72f 76f
2:00pm 2.5ft 5s 13 16 mph 1013.9mb 72f 76f
1:00pm 2.5ft 4s 13 16 mph 1014.3mb 72f 75f
12:00pm 2.5ft 4s 13
mph
1014.6mb 72f 74f
11:00am 2.5ft 4s 13 16 mph 1015.1mb 71f 73f
10:00am 2.5ft 4s 11 16 mph 1015.5mb 71f 73f
9:00am 2.5ft 4s 16 18 mph 1015.5mb 71f 73f
8:00am 2.5ft 5s 13 18 mph 1015.9mb 71f 72f
7:00am 2.5ft 4s 18 20 mph 1015.9mb 71f 71f
6:00am 2.5ft 4s 16 20 mph 1016mb 71f 71f
5:00am 2ft 4s 18 20 mph 1015.8mb 71f 71f
4:00am 1.6ft 4s 13 18 mph 1016mb 71f 72f
3:00am 1.3ft 4s 11 13 mph 1016.1mb 71f 72f
2:00am 1.3ft 4s 13 16 mph 1016.7mb 71f 72f
1:00am 1.6ft 4s 13 16 mph 1017.2mb 71f 72f
12:00am 1.6ft 4s 13 16 mph 1017.8mb 71f 72f
Fri 08/29 11:00pm 2ft 4s 11 13 mph 1017.6mb 71f 71f
10:00pm 2ft 4s 13 18 mph 1017.8mb 71f 71f
9:00pm 1.6ft 3s 16 20 mph 1017.7mb 71f 71f
8:00pm 1.3ft 3s 16 18 mph 1017.9mb 71f 71f
7:00pm 1ft 3s 16 18 mph 1017.9mb 71f 70f
6:00pm 0.7ft 3s 11 13 mph 1018.4mb 72f 70f
5:00pm 1ft 3s 9 13 mph 1018.9mb 72f 70f
4:00pm 1ft 3s 11 13 mph 1018.9mb 72f 69f
3:00pm 1.3ft 4s 11
mph
1019.3mb 72f 69f
2:00pm 1.3ft 4s 9 11 mph 1020mb 72f 68f
1:00pm 1.6ft 4s 11 13 mph 1020.7mb 71f 68f
12:00pm 1.6ft 3s 11 13 mph 1020.8mb 71f 68f
11:00am 1.3ft 3s 11 16 mph 1021mb 71f 67f
9:00am 1ft 3s 11 16 mph 1021.4mb 71f 67f
8:00am 0.7ft 3s 11 13 mph 1021.2mb 71f 68f
7:00am 1ft 3s 9 11 mph 1021.3mb 71f 67f
6:00am 1ft 3s 7 9 mph 1021.2mb 70f 67f
5:00am 0.7ft 3s 9 11 mph 1020.8mb 71f 67f